Time;durP1;ratioP1;P1;durP2;ratioP2;P2;SDS_P1;SDS_P2;PMS_P1;PMS_P2;Temp;Humidity;BMP_temperature;BMP_pressure;BME280_temperature;BME280_humidity;BME280_pressure;Samples;Min_cycle;Max_cycle;Signal;HPM_P1;HPM_P2
2022/05/22 00:02:01;;;;;;;;;;;16.30;65.50;;;;;;5087011;28;20356;-57
2022/05/22 00:04:26;;;;;;;;;;;16.30;65.50;;;;;;5090473;28;19915;-57
2022/05/22 00:06:52;;;;;;;;;;;16.20;65.40;;;;;;5088900;28;19915;-57
2022/05/22 00:09:18;;;;;;;;;;;16.20;65.30;;;;;;5089720;28;19912;-57
2022/05/22 00:11:43;;;;;;;;;;;16.20;65.40;;;;;;5089478;28;19908;-57
2022/05/22 00:14:12;;;;;;;;;;;16.20;65.30;;;;;;5085878;28;19912;-57
2022/05/22 00:16:42;;;;;;;;;;;16.20;65.40;;;;;;5086279;28;19918;-57
2022/05/22 00:19:18;;;;;;;;;;;16.20;65.60;;;;;;5090632;28;19912;-57
2022/05/22 00:21:44;;;;;;;;;;;16.20;65.50;;;;;;5087180;28;20280;-57
2022/05/22 00:24:10;;;;;;;;;;;16.20;65.40;;;;;;5088762;28;19922;-57
2022/05/22 00:26:36;;;;;;;;;;;16.20;65.50;;;;;;5089217;28;20016;-55
2022/05/22 00:29:01;;;;;;;;;;;16.10;65.50;;;;;;5087291;28;19916;-57
2022/05/22 00:31:27;;;;;;;;;;;16.10;65.50;;;;;;5089899;28;20329;-57
2022/05/22 00:33:53;;;;;;;;;;;16.10;65.50;;;;;;5088319;28;19953;-57
2022/05/22 00:36:18;;;;;;;;;;;16.00;65.50;;;;;;5089935;28;19912;-56
2022/05/22 00:38:44;;;;;;;;;;;16.10;65.50;;;;;;5089111;28;19914;-57
2022/05/22 00:41:11;;;;;;;;;;;16.00;65.50;;;;;;5089282;28;19941;-57
2022/05/22 00:43:38;;;;;;;;;;;15.90;65.50;;;;;;5089105;28;19915;-57
2022/05/22 00:46:05;;;;;;;;;;;15.90;65.40;;;;;;5088103;28;19908;-57
2022/05/22 00:48:31;;;;;;;;;;;15.90;65.50;;;;;;5087904;28;20375;-57
2022/05/22 00:51:00;;;;;;;;;;;15.80;65.50;;;;;;5088093;28;19966;-57
2022/05/22 00:53:27;;;;;;;;;;;15.80;65.50;;;;;;5090807;28;19915;-57
2022/05/22 00:55:53;;;;;;;;;;;15.80;65.40;;;;;;5087236;28;19931;-55
2022/05/22 00:58:20;;;;;;;;;;;15.80;65.50;;;;;;5089321;28;19908;-57
2022/05/22 01:00:46;;;;;;;;;;;15.70;65.50;;;;;;5087614;28;19912;-57
2022/05/22 01:03:27;;;;;;;;;;;15.70;65.50;;;;;;5088768;28;20347;-56
2022/05/22 01:06:00;;;;;;;;;;;15.70;65.60;;;;;;5088373;28;19912;-57
2022/05/22 01:08:25;;;;;;;;;;;15.60;65.60;;;;;;5089430;28;19908;-57
2022/05/22 01:11:05;;;;;;;;;;;15.60;65.80;;;;;;5088415;28;20359;-57
2022/05/22 01:13:32;;;;;;;;;;;15.60;65.80;;;;;;5089840;28;19930;-57
2022/05/22 01:15:59;;;;;;;;;;;15.50;65.80;;;;;;5094036;28;20390;-57
2022/05/22 01:18:27;;;;;;;;;;;15.50;65.70;;;;;;5095501;28;20280;-57
2022/05/22 01:20:53;;;;;;;;;;;15.50;65.70;;;;;;5094846;28;20305;-57
2022/05/22 01:23:20;;;;;;;;;;;15.50;65.70;;;;;;5096025;28;19965;-57
2022/05/22 01:25:46;;;;;;;;;;;15.50;65.80;;;;;;5092787;28;20010;-57
2022/05/22 01:28:13;;;;;;;;;;;15.40;65.70;;;;;;5093971;28;20057;-57
2022/05/22 01:30:39;;;;;;;;;;;15.40;65.90;;;;;;5095961;28;19919;-56
2022/05/22 01:33:04;;;;;;;;;;;15.40;66.10;;;;;;5094195;28;20369;-57
2022/05/22 01:35:30;;;;;;;;;;;15.40;66.10;;;;;;5096413;28;20341;-57
2022/05/22 01:37:56;;;;;;;;;;;15.40;66.10;;;;;;5094902;28;19954;-57
2022/05/22 01:40:22;;;;;;;;;;;15.40;66.10;;;;;;5092522;28;19908;-57
2022/05/22 01:42:48;;;;;;;;;;;15.30;66.00;;;;;;5095063;28;19943;-56
2022/05/22 01:45:15;;;;;;;;;;;15.30;66.00;;;;;;5097013;28;20394;-57
2022/05/22 01:47:41;;;;;;;;;;;15.30;66.20;;;;;;5091722;28;19908;-57
2022/05/22 01:50:08;;;;;;;;;;;15.30;66.10;;;;;;5094060;28;20359;-57
2022/05/22 01:52:34;;;;;;;;;;;15.20;66.00;;;;;;5096056;28;20352;-57
2022/05/22 01:54:59;;;;;;;;;;;15.20;66.10;;;;;;5095447;28;19952;-57
2022/05/22 01:57:25;;;;;;;;;;;15.20;66.10;;;;;;5098193;28;19908;-57
2022/05/22 01:59:51;;;;;;;;;;;15.10;66.00;;;;;;5094349;28;19908;-57
2022/05/22 02:02:16;;;;;;;;;;;15.10;66.10;;;;;;5095626;28;19908;-57
2022/05/22 02:04:42;;;;;;;;;;;15.10;66.10;;;;;;5095254;28;19908;-57
2022/05/22 02:09:51;;;;;;;;;;;15.10;66.10;;;;;;5092715;28;19945;-57
2022/05/22 02:12:17;;;;;;;;;;;15.00;66.00;;;;;;5094440;28;19907;-57
2022/05/22 02:14:43;;;;;;;;;;;15.00;66.00;;;;;;5095382;28;19908;-56
2022/05/22 02:17:08;;;;;;;;;;;15.00;66.10;;;;;;5095956;28;19985;-56
2022/05/22 02:19:34;;;;;;;;;;;15.00;66.10;;;;;;5095882;28;19908;-57
2022/05/22 02:21:59;;;;;;;;;;;14.90;66.10;;;;;;5093547;28;19927;-57
2022/05/22 02:24:25;;;;;;;;;;;14.90;66.10;;;;;;5094261;28;19915;-57
2022/05/22 02:26:50;;;;;;;;;;;14.90;66.10;;;;;;5090675;28;19912;-57
2022/05/22 02:29:17;;;;;;;;;;;14.90;66.10;;;;;;5093887;28;19959;-56
2022/05/22 02:31:42;;;;;;;;;;;14.90;66.10;;;;;;5091970;28;19908;-56
2022/05/22 02:34:07;;;;;;;;;;;14.90;66.10;;;;;;5090886;28;19915;-56
2022/05/22 02:36:33;;;;;;;;;;;14.90;66.20;;;;;;5093846;28;19908;-57
2022/05/22 02:38:59;;;;;;;;;;;14.90;66.20;;;;;;5091762;28;19916;-57
2022/05/22 02:41:25;;;;;;;;;;;15.00;66.20;;;;;;5091120;28;20414;-57
2022/05/22 02:43:51;;;;;;;;;;;15.00;66.00;;;;;;5090794;28;20283;-57
2022/05/22 02:46:17;;;;;;;;;;;15.00;65.90;;;;;;5091092;28;19908;-57
2022/05/22 02:48:43;;;;;;;;;;;15.00;65.90;;;;;;5089182;28;19908;-57
2022/05/22 02:51:12;;;;;;;;;;;15.00;65.90;;;;;;5090785;28;19916;-57
2022/05/22 02:53:38;;;;;;;;;;;15.00;65.70;;;;;;5091845;28;19970;-57
2022/05/22 02:56:10;;;;;;;;;;;15.00;65.60;;;;;;5088971;28;20356;-57
2022/05/22 02:58:36;;;;;;;;;;;15.00;65.60;;;;;;5090953;28;19915;-57
2022/05/22 03:01:02;;;;;;;;;;;15.00;65.40;;;;;;5089966;28;20273;-57
2022/05/22 03:03:27;;;;;;;;;;;15.00;65.00;;;;;;5092993;28;19943;-57
2022/05/22 03:08:37;;;;;;;;;;;15.10;65.00;;;;;;5091044;28;19914;-57
2022/05/22 03:11:03;;;;;;;;;;;15.10;65.10;;;;;;5090009;28;19912;-57
2022/05/22 03:13:28;;;;;;;;;;;15.10;65.00;;;;;;5092071;28;20003;-57
2022/05/22 03:15:54;;;;;;;;;;;15.20;65.00;;;;;;5089003;28;19943;-57
2022/05/22 03:18:19;;;;;;;;;;;15.20;65.00;;;;;;5093128;28;19987;-57
2022/05/22 03:20:46;;;;;;;;;;;15.30;64.90;;;;;;5091274;28;20283;-57
2022/05/22 03:23:12;;;;;;;;;;;15.40;65.00;;;;;;5090440;28;20361;-57
2022/05/22 03:25:38;;;;;;;;;;;15.50;65.40;;;;;;5092024;28;19912;-57
2022/05/22 03:28:04;;;;;;;;;;;15.60;65.50;;;;;;5089097;28;20269;-57
2022/05/22 03:30:29;;;;;;;;;;;15.80;65.60;;;;;;5093082;28;19924;-57
2022/05/22 03:32:55;;;;;;;;;;;16.00;65.80;;;;;;5089251;28;19961;-57
2022/05/22 03:35:20;;;;;;;;;;;16.20;66.20;;;;;;5091927;28;19908;-57
2022/05/22 03:37:46;;;;;;;;;;;16.50;66.30;;;;;;5092301;28;19953;-57
2022/05/22 03:40:13;;;;;;;;;;;16.90;66.60;;;;;;5092059;28;19962;-56
2022/05/22 03:42:38;;;;;;;;;;;17.30;66.60;;;;;;5092063;28;19908;-57
2022/05/22 03:45:04;;;;;;;;;;;17.90;66.30;;;;;;5089995;28;19927;-58
2022/05/22 03:47:30;;;;;;;;;;;18.50;65.80;;;;;;5092948;28;19911;-57
2022/05/22 03:49:56;;;;;;;;;;;19.20;65.20;;;;;;5089471;28;20287;-57
2022/05/22 03:52:21;;;;;;;;;;;20.10;64.90;;;;;;5091697;28;20000;-57
2022/05/22 03:54:47;;;;;;;;;;;20.90;62.40;;;;;;5086372;28;20344;-58
2022/05/22 03:57:12;;;;;;;;;;;21.80;61.30;;;;;;5090397;28;19916;-57
2022/05/22 03:59:39;;;;;;;;;;;22.70;60.60;;;;;;5091582;28;20015;-58
2022/05/22 04:02:04;;;;;;;;;;;23.50;59.30;;;;;;5091062;28;20346;-57
2022/05/22 04:04:30;;;;;;;;;;;24.20;57.70;;;;;;5091114;28;19994;-55
2022/05/22 04:06:55;;;;;;;;;;;24.90;57.40;;;;;;5090349;28;19908;-58
2022/05/22 04:09:21;;;;;;;;;;;25.60;56.50;;;;;;5090938;28;19958;-58
2022/05/22 04:11:47;;;;;;;;;;;26.20;55.60;;;;;;5090355;28;20386;-57
2022/05/22 04:14:12;;;;;;;;;;;26.80;54.50;;;;;;5087719;28;19959;-58
2022/05/22 04:16:38;;;;;;;;;;;27.30;54.30;;;;;;5090168;28;19982;-57
2022/05/22 04:19:04;;;;;;;;;;;27.80;53.30;;;;;;5090302;28;19919;-55
2022/05/22 04:21:29;;;;;;;;;;;28.30;53.40;;;;;;5091789;28;19912;-58
2022/05/22 04:26:39;;;;;;;;;;;29.30;52.90;;;;;;5090721;28;20370;-55
2022/05/22 04:29:05;;;;;;;;;;;30.00;52.10;;;;;;5087708;28;19908;-55
2022/05/22 04:31:30;;;;;;;;;;;30.50;51.90;;;;;;5088250;28;19908;-55
2022/05/22 04:33:56;;;;;;;;;;;30.90;51.50;;;;;;5087925;28;19908;-55
2022/05/22 04:36:21;;;;;;;;;;;31.30;51.20;;;;;;5090715;28;19914;-55
2022/05/22 04:38:47;;;;;;;;;;;31.80;50.90;;;;;;5090816;28;19934;-55
2022/05/22 04:41:12;;;;;;;;;;;32.20;50.50;;;;;;5087438;28;19962;-55
2022/05/22 04:43:38;;;;;;;;;;;32.60;49.90;;;;;;5090039;28;20326;-54
2022/05/22 04:46:07;;;;;;;;;;;32.80;50.10;;;;;;5087347;28;19916;-56
2022/05/22 04:48:33;;;;;;;;;;;33.10;49.20;;;;;;5085175;28;19954;-56
2022/05/22 04:50:59;;;;;;;;;;;33.40;49.00;;;;;;5087556;28;19916;-56
2022/05/22 04:53:25;;;;;;;;;;;33.50;48.40;;;;;;5089835;28;19916;-54
2022/05/22 04:55:51;;;;;;;;;;;33.60;48.20;;;;;;5089768;28;20401;-56
2022/05/22 04:58:17;;;;;;;;;;;33.70;47.70;;;;;;5088332;28;19915;-56
2022/05/22 05:00:43;;;;;;;;;;;33.70;47.80;;;;;;5089309;28;19908;-56
2022/05/22 05:03:09;;;;;;;;;;;33.80;46.90;;;;;;5088500;28;19935;-56
2022/05/22 05:05:35;;;;;;;;;;;33.80;47.20;;;;;;5089554;28;19908;-56
2022/05/22 05:08:00;;;;;;;;;;;33.80;47.00;;;;;;5089256;28;19912;-56
2022/05/22 05:10:26;;;;;;;;;;;33.70;46.70;;;;;;5089610;28;19994;-56
2022/05/22 05:12:52;;;;;;;;;;;33.70;46.90;;;;;;5072906;28;19940;-56
2022/05/22 05:15:20;;;;;;;;;;;33.60;46.30;;;;;;5088546;28;19916;-56
2022/05/22 05:17:45;;;;;;;;;;;33.50;46.10;;;;;;5089318;28;19953;-56
2022/05/22 05:20:12;;;;;;;;;;;33.30;45.40;;;;;;5088092;28;19913;-56
2022/05/22 05:22:38;;;;;;;;;;;33.00;44.90;;;;;;5087193;28;19904;-56
2022/05/22 05:25:04;;;;;;;;;;;32.40;45.10;;;;;;5089187;28;23066;-56
2022/05/22 05:27:30;;;;;;;;;;;31.60;44.80;;;;;;5089976;28;19914;-55
2022/05/22 05:29:55;;;;;;;;;;;30.60;45.50;;;;;;5089387;28;19916;-56
2022/05/22 05:32:22;;;;;;;;;;;29.50;45.70;;;;;;5089243;28;20355;-56
2022/05/22 05:34:55;;;;;;;;;;;28.40;46.00;;;;;;5073337;28;19915;-56
2022/05/22 05:37:20;;;;;;;;;;;27.30;47.10;;;;;;5083065;28;20366;-56
2022/05/22 05:39:46;;;;;;;;;;;26.30;47.20;;;;;;5089797;28;19908;-55
2022/05/22 05:42:12;;;;;;;;;;;25.40;48.20;;;;;;5088832;28;19983;-55
2022/05/22 05:44:38;;;;;;;;;;;24.60;48.80;;;;;;5089608;28;19958;-56
2022/05/22 05:47:04;;;;;;;;;;;24.00;49.30;;;;;;5087680;28;19912;-56
2022/05/22 05:49:29;;;;;;;;;;;23.40;49.80;;;;;;5089067;28;19955;-55
2022/05/22 05:51:55;;;;;;;;;;;23.00;50.40;;;;;;5085337;28;19908;-56
2022/05/22 05:54:20;;;;;;;;;;;22.60;51.00;;;;;;5090810;28;19908;-56
2022/05/22 05:56:46;;;;;;;;;;;22.30;51.40;;;;;;5089978;28;19908;-56
2022/05/22 05:59:11;;;;;;;;;;;22.10;51.50;;;;;;5090173;28;19915;-56
2022/05/22 06:01:37;;;;;;;;;;;21.90;51.80;;;;;;5092851;28;19908;-56
2022/05/22 06:04:03;;;;;;;;;;;21.70;52.10;;;;;;5092261;28;19915;-56
2022/05/22 06:06:29;;;;;;;;;;;21.60;52.40;;;;;;5092251;28;20303;-56
2022/05/22 06:08:55;;;;;;;;;;;21.50;52.30;;;;;;5093294;28;19994;-55
2022/05/22 06:11:21;;;;;;;;;;;21.40;52.10;;;;;;5093558;28;19955;-56
2022/05/22 06:13:47;;;;;;;;;;;21.20;52.40;;;;;;5093547;28;19908;-56
2022/05/22 06:16:13;;;;;;;;;;;21.00;52.20;;;;;;5088287;28;19908;-55
2022/05/22 06:18:40;;;;;;;;;;;20.80;52.20;;;;;;5094733;28;20390;-56
2022/05/22 06:21:24;;;;;;;;;;;20.60;53.10;;;;;;5092916;28;19920;-56
2022/05/22 06:23:49;;;;;;;;;;;20.50;52.30;;;;;;5089996;28;19919;-56
2022/05/22 06:26:17;;;;;;;;;;;20.40;52.80;;;;;;5093503;28;20276;-56
2022/05/22 06:28:43;;;;;;;;;;;20.30;53.00;;;;;;5093885;28;19915;-56
2022/05/22 06:31:09;;;;;;;;;;;20.20;53.00;;;;;;5090615;28;20295;-56
2022/05/22 06:33:34;;;;;;;;;;;20.20;53.10;;;;;;5091294;28;19908;-56
2022/05/22 06:36:06;;;;;;;;;;;20.20;53.10;;;;;;5091255;28;20397;-56
2022/05/22 06:41:16;;;;;;;;;;;20.20;52.80;;;;;;5091433;28;20458;-56
2022/05/22 06:43:42;;;;;;;;;;;20.10;53.00;;;;;;5092904;28;20060;-56
2022/05/22 06:46:07;;;;;;;;;;;20.10;52.90;;;;;;5091720;28;19976;-55
2022/05/22 06:48:33;;;;;;;;;;;20.10;53.00;;;;;;5092895;28;19970;-56
2022/05/22 06:50:58;;;;;;;;;;;20.00;52.80;;;;;;5092064;28;20372;-56
2022/05/22 06:53:24;;;;;;;;;;;19.90;52.60;;;;;;5092500;28;19908;-56
2022/05/22 06:55:50;;;;;;;;;;;19.80;52.80;;;;;;5088869;28;20320;-56
2022/05/22 06:58:15;;;;;;;;;;;19.70;52.60;;;;;;5088268;28;19962;-55
2022/05/22 07:00:41;;;;;;;;;;;19.60;53.00;;;;;;5092339;28;19912;-56
2022/05/22 07:03:07;;;;;;;;;;;19.60;53.30;;;;;;5091911;28;19908;-56
2022/05/22 07:05:32;;;;;;;;;;;19.60;53.20;;;;;;5092551;28;20264;-56
2022/05/22 07:07:58;;;;;;;;;;;19.50;53.00;;;;;;5090647;28;19908;-56
2022/05/22 07:11:38;;;;;;;;;;;19.50;53.00;;;;;;5092258;28;20363;-56
2022/05/22 07:13:10;;;;;;;;;;;19.50;53.20;;;;;;5088750;28;19993;-56
2022/05/22 07:15:36;;;;;;;;;;;19.50;52.80;;;;;;5091269;28;19954;-56
2022/05/22 07:18:01;;;;;;;;;;;19.50;53.10;;;;;;5091744;28;19908;-56
2022/05/22 07:20:27;;;;;;;;;;;19.50;53.10;;;;;;5092220;28;19916;-56
2022/05/22 07:22:53;;;;;;;;;;;19.40;53.10;;;;;;5091153;28;19972;-56
2022/05/22 07:25:18;;;;;;;;;;;19.30;53.10;;;;;;5091697;28;19920;-56
2022/05/22 07:27:44;;;;;;;;;;;19.20;53.50;;;;;;5091902;28;19914;-56
2022/05/22 07:30:10;;;;;;;;;;;19.20;53.60;;;;;;5089088;28;19984;-56
2022/05/22 07:32:35;;;;;;;;;;;19.10;53.60;;;;;;5089154;28;19912;-56
2022/05/22 07:35:01;;;;;;;;;;;19.00;53.70;;;;;;5090041;28;19961;-56
2022/05/22 07:37:26;;;;;;;;;;;19.00;53.90;;;;;;5091492;28;20326;-56
2022/05/22 07:39:52;;;;;;;;;;;19.00;53.90;;;;;;5090674;28;19908;-56
2022/05/22 07:42:17;;;;;;;;;;;19.00;53.90;;;;;;5091290;28;19908;-56
2022/05/22 07:44:43;;;;;;;;;;;19.00;53.80;;;;;;5091209;28;19908;-55
2022/05/22 07:47:08;;;;;;;;;;;19.00;54.00;;;;;;5090033;28;19965;-55
2022/05/22 07:52:19;;;;;;;;;;;18.90;54.10;;;;;;5093694;28;19968;-56
2022/05/22 07:54:44;;;;;;;;;;;18.80;54.20;;;;;;5092039;28;20276;-56
2022/05/22 07:57:10;;;;;;;;;;;18.70;54.30;;;;;;5089620;28;19934;-56
2022/05/22 07:59:36;;;;;;;;;;;18.60;54.50;;;;;;5091183;28;19908;-56
2022/05/22 08:02:03;;;;;;;;;;;18.50;54.70;;;;;;5089618;28;19908;-56
2022/05/22 08:04:29;;;;;;;;;;;18.50;55.00;;;;;;5090078;28;19912;-56
2022/05/22 08:06:55;;;;;;;;;;;18.40;55.00;;;;;;5089624;28;19915;-56
2022/05/22 08:09:20;;;;;;;;;;;18.40;55.40;;;;;;5090948;28;20367;-56
2022/05/22 08:11:46;;;;;;;;;;;18.30;55.80;;;;;;5090931;28;20026;-56
2022/05/22 08:14:11;;;;;;;;;;;18.20;55.90;;;;;;5087184;28;19981;-55
2022/05/22 08:16:37;;;;;;;;;;;18.10;56.20;;;;;;5091651;28;19961;-55
2022/05/22 08:19:03;;;;;;;;;;;18.00;56.50;;;;;;5090602;28;19908;-55
2022/05/22 08:21:28;;;;;;;;;;;18.00;56.50;;;;;;5089377;28;19968;-56
2022/05/22 08:23:54;;;;;;;;;;;18.10;56.60;;;;;;5089278;28;19922;-56
2022/05/22 08:26:20;;;;;;;;;;;18.10;56.70;;;;;;5088556;28;19961;-56
2022/05/22 08:28:45;;;;;;;;;;;18.10;56.90;;;;;;5091865;28;20007;-56
2022/05/22 08:31:11;;;;;;;;;;;18.20;56.90;;;;;;5087964;28;20426;-56
2022/05/22 08:33:37;;;;;;;;;;;18.30;56.50;;;;;;5090613;28;20342;-56
2022/05/22 08:36:02;;;;;;;;;;;18.30;56.10;;;;;;5088205;28;19911;-56
2022/05/22 08:38:29;;;;;;;;;;;18.30;56.10;;;;;;5088151;28;20257;-56
2022/05/22 08:41:04;;;;;;;;;;;18.30;55.90;;;;;;5089315;28;19912;-56
2022/05/22 08:43:33;;;;;;;;;;;18.40;56.00;;;;;;5089288;28;19916;-56
2022/05/22 08:46:05;;;;;;;;;;;18.30;55.90;;;;;;5087347;28;19923;-56
2022/05/22 08:48:38;;;;;;;;;;;18.40;56.00;;;;;;5092377;28;19915;-56
2022/05/22 08:51:08;;;;;;;;;;;18.40;56.00;;;;;;5088398;28;20356;-56
2022/05/22 08:53:37;;;;;;;;;;;18.40;56.00;;;;;;5091513;28;19908;-56
2022/05/22 08:59:03;;;;;;;;;;;18.40;55.80;;;;;;5090034;28;19919;-56
2022/05/22 09:01:34;;;;;;;;;;;18.30;55.90;;;;;;5087720;28;19908;-56
2022/05/22 09:04:18;;;;;;;;;;;18.20;56.00;;;;;;5086923;28;20057;-56
2022/05/22 09:06:50;;;;;;;;;;;18.20;56.20;;;;;;5089412;28;19916;-56
2022/05/22 09:09:16;;;;;;;;;;;18.10;56.40;;;;;;5089396;28;20018;-56
2022/05/22 09:12:08;;;;;;;;;;;18.10;56.50;;;;;;5088439;28;20023;-56
2022/05/22 09:14:53;;;;;;;;;;;18.20;56.60;;;;;;5082673;28;19908;-56
2022/05/22 09:17:23;;;;;;;;;;;18.20;56.60;;;;;;5087342;28;20409;-56
2022/05/22 09:19:49;;;;;;;;;;;18.30;56.50;;;;;;5086776;28;19912;-55
2022/05/22 09:22:17;;;;;;;;;;;18.30;56.30;;;;;;5088611;28;19919;-56
2022/05/22 09:24:43;;;;;;;;;;;18.30;56.10;;;;;;5089972;28;20275;-56
2022/05/22 09:27:09;;;;;;;;;;;18.30;56.00;;;;;;5087043;28;19913;-56
2022/05/22 09:29:41;;;;;;;;;;;18.20;56.20;;;;;;5088634;28;20013;-56
2022/05/22 09:32:06;;;;;;;;;;;18.20;56.20;;;;;;5086424;28;19958;-56
2022/05/22 09:34:38;;;;;;;;;;;18.10;56.30;;;;;;5075464;28;20272;-56
2022/05/22 09:37:13;;;;;;;;;;;18.00;56.30;;;;;;5087783;28;20155;-55
2022/05/22 09:39:56;;;;;;;;;;;17.90;56.40;;;;;;5088103;28;19908;-56
2022/05/22 09:42:36;;;;;;;;;;;17.90;56.50;;;;;;5095569;28;19912;-56
2022/05/22 09:45:02;;;;;;;;;;;17.90;56.80;;;;;;5082964;28;19912;-56
2022/05/22 09:47:30;;;;;;;;;;;17.80;57.00;;;;;;5088379;28;19915;-56
2022/05/22 09:50:25;;;;;;;;;;;17.80;57.10;;;;;;5086811;28;19908;-56
2022/05/22 09:53:02;;;;;;;;;;;17.90;57.20;;;;;;5070746;28;19908;-56
2022/05/22 09:55:31;;;;;;;;;;;17.90;57.30;;;;;;5087142;28;20319;-55
2022/05/22 09:58:08;;;;;;;;;;;18.00;57.30;;;;;;5088036;28;19904;-54
2022/05/22 10:00:34;;;;;;;;;;;18.00;57.40;;;;;;5093789;28;19994;-56
2022/05/22 10:03:02;;;;;;;;;;;18.10;57.70;;;;;;5082332;28;19931;-56
2022/05/22 10:05:45;;;;;;;;;;;18.20;57.70;;;;;;5086376;28;19904;-56
2022/05/22 10:08:29;;;;;;;;;;;18.30;57.80;;;;;;5093805;28;19904;-56
2022/05/22 10:11:07;;;;;;;;;;;18.40;57.60;;;;;;5081062;28;19915;-56
2022/05/22 10:13:32;;;;;;;;;;;18.50;57.70;;;;;;5088849;28;19904;-56
2022/05/22 10:16:01;;;;;;;;;;;18.60;57.70;;;;;;5076326;28;19903;-56
2022/05/22 10:18:26;;;;;;;;;;;18.70;57.30;;;;;;5094494;28;19908;-56
2022/05/22 10:20:56;;;;;;;;;;;18.80;57.10;;;;;;5088793;28;20672;-55
2022/05/22 10:23:49;;;;;;;;;;;18.80;56.80;;;;;;5087313;28;19915;-56
2022/05/22 10:26:26;;;;;;;;;;;18.80;56.50;;;;;;5093374;28;19916;-56
2022/05/22 10:29:12;;;;;;;;;;;18.80;56.30;;;;;;5082732;28;19912;-56
2022/05/22 10:31:59;;;;;;;;;;;18.60;56.50;;;;;;5076345;28;19940;-55
2022/05/22 10:34:30;;;;;;;;;;;18.40;56.90;;;;;;5083612;28;20519;-56
2022/05/22 10:37:00;;;;;;;;;;;18.20;56.80;;;;;;5088214;28;20328;-56
2022/05/22 10:39:25;;;;;;;;;;;18.10;57.20;;;;;;5092312;28;19904;-56
2022/05/22 10:44:36;;;;;;;;;;;17.80;57.40;;;;;;5096184;28;20386;-56
2022/05/22 10:47:02;;;;;;;;;;;17.60;57.80;;;;;;5095168;28;19950;-56
2022/05/22 10:49:39;;;;;;;;;;;17.50;57.70;;;;;;5096711;28;19908;-56
2022/05/22 10:52:05;;;;;;;;;;;17.40;58.00;;;;;;5096519;28;20268;-56
2022/05/22 10:54:32;;;;;;;;;;;17.30;58.20;;;;;;5093322;28;20049;-56
2022/05/22 10:57:11;;;;;;;;;;;17.20;58.30;;;;;;5095861;28;19908;-56
2022/05/22 10:59:37;;;;;;;;;;;17.20;58.50;;;;;;5096200;28;19911;-56
2022/05/22 11:02:04;;;;;;;;;;;17.20;58.70;;;;;;5096197;28;19904;-56
2022/05/22 11:04:37;;;;;;;;;;;17.10;58.80;;;;;;5095275;28;20274;-55
2022/05/22 11:07:04;;;;;;;;;;;17.10;59.20;;;;;;5079895;28;19995;-56
2022/05/22 11:09:34;;;;;;;;;;;17.10;59.20;;;;;;5084380;28;19912;-56
2022/05/22 11:12:19;;;;;;;;;;;17.10;59.30;;;;;;5083013;28;19905;-56
2022/05/22 11:14:45;;;;;;;;;;;17.00;59.00;;;;;;5096212;28;19946;-56
2022/05/22 11:17:15;;;;;;;;;;;17.00;59.20;;;;;;5095745;28;19953;-56
2022/05/22 11:19:41;;;;;;;;;;;16.90;59.10;;;;;;5095799;28;19904;-56
2022/05/22 11:22:07;;;;;;;;;;;16.90;59.30;;;;;;5095986;28;20253;-56
2022/05/22 11:24:35;;;;;;;;;;;16.80;59.00;;;;;;5095382;28;19938;-56
2022/05/22 11:27:10;;;;;;;;;;;16.80;58.90;;;;;;5095567;28;19984;-56
2022/05/22 11:29:51;;;;;;;;;;;16.70;58.80;;;;;;5094734;28;19912;-56
2022/05/22 11:32:16;;;;;;;;;;;16.70;58.80;;;;;;5087571;28;19959;-57
2022/05/22 11:34:42;;;;;;;;;;;16.70;58.90;;;;;;5088763;28;19912;-56
2022/05/22 11:37:10;;;;;;;;;;;16.70;59.00;;;;;;5078187;28;19904;-57
2022/05/22 11:39:36;;;;;;;;;;;16.70;59.20;;;;;;5075162;28;19908;-57
2022/05/22 11:42:10;;;;;;;;;;;16.80;59.30;;;;;;5075000;28;19931;-56
2022/05/22 11:44:36;;;;;;;;;;;16.90;59.10;;;;;;5075606;28;19935;-57
2022/05/22 11:47:27;;;;;;;;;;;16.90;59.20;;;;;;5093642;28;20363;-56
2022/05/22 11:50:12;;;;;;;;;;;17.00;59.30;;;;;;5080336;28;19960;-57
2022/05/22 11:52:55;;;;;;;;;;;17.10;59.00;;;;;;5091931;28;19969;-56
2022/05/22 11:55:26;;;;;;;;;;;17.20;59.10;;;;;;5087602;28;19931;-57
2022/05/22 11:58:07;;;;;;;;;;;17.10;59.20;;;;;;5094716;28;19904;-57
2022/05/22 12:00:51;;;;;;;;;;;17.20;59.10;;;;;;5093982;28;19907;-57
2022/05/22 12:03:35;;;;;;;;;;;17.10;59.10;;;;;;5084894;28;20355;-57
2022/05/22 12:06:33;;;;;;;;;;;17.10;59.70;;;;;;5080401;28;19908;-56
2022/05/22 12:09:17;;;;;;;;;;;17.10;59.50;;;;;;5049656;28;19911;-55
2022/05/22 12:11:53;;;;;;;;;;;17.00;59.70;;;;;;5093259;28;19908;-56
2022/05/22 12:14:34;;;;;;;;;;;17.00;59.80;;;;;;5094413;28;19908;-57
2022/05/22 12:17:13;;;;;;;;;;;17.00;60.00;;;;;;5094640;28;19919;-57
2022/05/22 12:19:44;;;;;;;;;;;17.10;60.00;;;;;;5093587;28;19961;-57
2022/05/22 12:22:12;;;;;;;;;;;17.20;59.70;;;;;;5094228;28;20002;-57
2022/05/22 12:24:42;;;;;;;;;;;17.20;59.40;;;;;;5094184;28;19911;-56
2022/05/22 12:27:13;;;;;;;;;;;17.20;59.20;;;;;;5094314;28;19904;-57
2022/05/22 12:29:46;;;;;;;;;;;17.20;58.90;;;;;;5092418;28;20006;-56
2022/05/22 12:32:17;;;;;;;;;;;17.20;59.10;;;;;;5085073;28;20257;-56
2022/05/22 12:34:45;;;;;;;;;;;17.10;59.30;;;;;;5087496;28;19934;-56
2022/05/22 12:37:16;;;;;;;;;;;17.10;59.50;;;;;;5090197;28;20279;-56
2022/05/22 12:39:47;;;;;;;;;;;17.00;59.50;;;;;;5087044;28;19947;-56
2022/05/22 12:42:15;;;;;;;;;;;17.00;59.80;;;;;;5086299;28;19962;-57
2022/05/22 12:44:40;;;;;;;;;;;16.90;60.70;;;;;;5089686;28;19915;-57
2022/05/22 12:47:14;;;;;;;;;;;16.90;60.30;;;;;;5089785;28;19907;-57
2022/05/22 12:49:40;;;;;;;;;;;16.80;60.50;;;;;;5089298;28;19919;-57
2022/05/22 12:52:13;;;;;;;;;;;16.60;60.20;;;;;;5089808;28;19952;-57
2022/05/22 12:54:39;;;;;;;;;;;16.50;60.40;;;;;;5090301;28;20398;-56
2022/05/22 12:57:05;;;;;;;;;;;16.50;60.60;;;;;;5089866;28;19908;-56
2022/05/22 12:59:31;;;;;;;;;;;16.50;60.80;;;;;;5085447;28;19984;-56
2022/05/22 13:01:58;;;;;;;;;;;16.50;61.00;;;;;;5089596;28;19912;-56
2022/05/22 13:04:54;;;;;;;;;;;16.60;61.00;;;;;;5085524;28;19994;-57
2022/05/22 13:07:25;;;;;;;;;;;16.60;60.90;;;;;;5073134;28;19912;-56
2022/05/22 13:09:54;;;;;;;;;;;16.60;61.00;;;;;;5086629;28;19985;-56
2022/05/22 13:12:28;;;;;;;;;;;16.60;62.00;;;;;;5087665;28;19908;-55
2022/05/22 13:15:16;;;;;;;;;;;16.50;62.00;;;;;;5090211;28;19908;-56
2022/05/22 13:17:53;;;;;;;;;;;16.40;62.30;;;;;;5088768;28;19908;-56
2022/05/22 13:20:21;;;;;;;;;;;16.30;62.30;;;;;;5086030;28;19912;-57
2022/05/22 13:22:47;;;;;;;;;;;16.20;62.30;;;;;;5084497;28;19908;-57
2022/05/22 13:25:26;;;;;;;;;;;16.20;62.20;;;;;;5088538;28;19916;-56
2022/05/22 13:27:52;;;;;;;;;;;16.10;62.30;;;;;;5087236;28;19912;-56
2022/05/22 13:30:23;;;;;;;;;;;16.10;62.50;;;;;;5087622;28;19912;-57
2022/05/22 13:32:58;;;;;;;;;;;16.10;62.50;;;;;;5086691;28;19916;-57
2022/05/22 13:35:25;;;;;;;;;;;16.10;62.50;;;;;;5087309;28;20011;-57
2022/05/22 13:37:52;;;;;;;;;;;16.00;62.40;;;;;;5089310;28;19914;-57
2022/05/22 13:40:20;;;;;;;;;;;16.00;62.30;;;;;;5085287;28;19908;-56
2022/05/22 13:43:04;;;;;;;;;;;15.90;62.80;;;;;;5088567;28;19908;-57
2022/05/22 13:45:39;;;;;;;;;;;15.80;63.00;;;;;;5087476;28;19912;-56
2022/05/22 13:48:10;;;;;;;;;;;15.80;63.20;;;;;;5089080;28;20443;-57
2022/05/22 13:53:22;;;;;;;;;;;15.70;63.70;;;;;;5087796;28;19986;-56
2022/05/22 13:55:49;;;;;;;;;;;15.70;63.90;;;;;;5089322;28;19908;-57
2022/05/22 13:58:23;;;;;;;;;;;15.70;64.10;;;;;;5088922;28;19947;-57
2022/05/22 14:00:50;;;;;;;;;;;15.70;63.70;;;;;;5086203;28;19985;-57
2022/05/22 14:03:24;;;;;;;;;;;15.80;64.00;;;;;;5090620;28;19908;-57
2022/05/22 14:05:52;;;;;;;;;;;15.80;64.50;;;;;;5089189;28;19908;-56
2022/05/22 14:08:19;;;;;;;;;;;15.80;64.20;;;;;;5088544;28;19915;-57
2022/05/22 14:10:45;;;;;;;;;;;15.80;64.40;;;;;;5087402;28;20383;-57
2022/05/22 14:13:18;;;;;;;;;;;15.80;64.10;;;;;;5089962;28;19918;-57
2022/05/22 14:15:48;;;;;;;;;;;15.80;64.00;;;;;;5087351;28;20002;-56
2022/05/22 14:18:15;;;;;;;;;;;15.80;64.00;;;;;;5087931;28;20281;-56
2022/05/22 14:20:41;;;;;;;;;;;15.80;64.30;;;;;;5084938;28;20398;-57
2022/05/22 14:23:07;;;;;;;;;;;15.80;64.30;;;;;;5089485;28;20425;-57
2022/05/22 14:25:35;;;;;;;;;;;15.80;64.70;;;;;;5090268;28;19916;-56
2022/05/22 14:28:03;;;;;;;;;;;15.70;64.60;;;;;;5092002;28;19908;-56
2022/05/22 14:30:39;;;;;;;;;;;15.70;64.60;;;;;;5090878;28;20307;-56
2022/05/22 14:33:08;;;;;;;;;;;15.70;65.10;;;;;;5091022;28;19912;-56
2022/05/22 14:35:38;;;;;;;;;;;15.60;65.10;;;;;;5090939;28;19908;-57
2022/05/22 14:38:30;;;;;;;;;;;15.70;65.60;;;;;;5091835;28;19943;-57
2022/05/22 14:40:57;;;;;;;;;;;15.60;65.70;;;;;;5087847;28;19912;-57
2022/05/22 14:43:35;;;;;;;;;;;15.60;66.10;;;;;;5084482;28;19908;-56
2022/05/22 14:46:01;;;;;;;;;;;15.50;66.20;;;;;;5088793;28;19966;-58
2022/05/22 14:48:27;;;;;;;;;;;15.40;66.40;;;;;;5087841;28;19935;-57